createdAt,value
2023-01-12T00:00:43.075Z,98977.28
2023-01-12T00:01:44.884Z,98931.66
2023-01-12T00:02:46.597Z,98982.22
2023-01-12T00:03:48.942Z,98988.59
2023-01-12T00:04:50.662Z,98978.91
2023-01-12T00:05:52.371Z,98991.47
2023-01-12T00:06:54.199Z,98997.47
2023-01-12T00:07:55.907Z,98995.84
2023-01-12T00:08:57.951Z,98998.47
2023-01-12T00:09:59.671Z,98997.72
2023-01-12T00:11:02.707Z,98999.34
2023-01-12T00:12:06.393Z,98983.88
2023-01-12T00:13:08.130Z,99002.63
2023-01-12T00:14:09.965Z,99005.88
2023-01-12T00:15:11.894Z,99005.53
2023-01-12T00:16:37.214Z,99006.53
2023-01-12T00:17:38.932Z,99005.59
2023-01-12T00:18:40.617Z,99001.63
2023-01-12T00:19:42.300Z,99009.16
2023-01-12T00:20:50.106Z,99007.06
2023-01-12T00:22:12.081Z,99011.78
2023-01-12T00:23:14.133Z,99014.00
2023-01-12T00:24:19.466Z,99000.63
2023-01-12T00:25:21.164Z,99016.84
2023-01-12T00:26:22.895Z,99006.69
2023-01-12T00:27:24.635Z,99019.25
2023-01-12T00:28:26.370Z,99024.50
2023-01-12T00:29:28.906Z,99018.28
2023-01-12T00:30:30.596Z,99015.84
2023-01-12T00:31:32.375Z,99024.91
2023-01-12T00:32:34.128Z,99015.94
2023-01-12T00:33:36.676Z,99025.72
2023-01-12T00:34:38.365Z,99007.78
2023-01-12T00:35:40.204Z,99018.56
2023-01-12T00:36:42.282Z,99026.34
2023-01-12T00:37:43.985Z,99028.34
2023-01-12T00:38:45.683Z,99023.81
2023-01-12T00:40:00.907Z,99026.53
2023-01-12T00:41:07.693Z,99032.22
2023-01-12T00:42:38.881Z,99024.34
2023-01-12T00:43:59.071Z,99032.50
2023-01-12T00:45:19.729Z,99019.56
2023-01-12T00:46:32.256Z,99022.19
2023-01-12T00:47:34.417Z,99005.06
2023-01-12T00:48:36.179Z,99031.22
2023-01-12T00:49:39.276Z,99031.50
2023-01-12T00:50:41.017Z,99019.25
2023-01-12T00:51:42.747Z,99033.66
2023-01-12T00:52:45.215Z,99019.91
2023-01-12T00:53:46.916Z,99018.91
2023-01-12T00:54:48.666Z,99023.34
2023-01-12T00:55:50.384Z,99019.91
2023-01-12T00:56:52.263Z,99017.28
2023-01-12T00:57:53.950Z,99016.63
2023-01-12T00:58:55.646Z,99015.66
2023-01-12T00:59:59.465Z,99023.16
2023-01-12T01:01:06.624Z,98970.47
2023-01-12T01:02:08.538Z,99026.44
2023-01-12T01:03:10.347Z,99019.38
2023-01-12T01:04:12.199Z,99022.19
2023-01-12T01:05:14.285Z,99018.09
2023-01-12T01:06:16.026Z,99029.53
2023-01-12T01:07:18.611Z,99024.16
2023-01-12T01:08:20.468Z,99027.88
2023-01-12T01:09:22.232Z,99026.06
2023-01-12T01:10:23.941Z,99029.88
2023-01-12T01:11:25.744Z,99022.81
2023-01-12T01:12:27.435Z,99026.59
2023-01-12T01:13:29.217Z,99022.81
2023-01-12T01:14:30.970Z,99019.72
2023-01-12T01:15:32.748Z,99028.69
2023-01-12T01:16:34.979Z,99016.03
2023-01-12T01:17:36.720Z,99031.31
2023-01-12T01:18:38.898Z,99034.31
2023-01-12T01:19:40.656Z,99032.69
2023-01-12T01:20:47.102Z,99036.94
2023-01-12T01:21:48.879Z,99034.13
2023-01-12T01:22:50.594Z,99044.47
2023-01-12T01:23:54.026Z,99043.81
2023-01-12T01:24:55.862Z,99034.22
2023-01-12T01:26:03.099Z,99044.97
2023-01-12T01:27:04.786Z,99038.75
2023-01-12T01:28:06.485Z,99040.38
2023-01-12T01:29:08.602Z,99042.88
2023-01-12T01:30:11.367Z,99041.47
2023-01-12T01:31:22.253Z,99043.44
2023-01-12T01:32:23.957Z,99026.34
2023-01-12T01:33:25.681Z,99032.47
2023-01-12T01:34:27.639Z,99036.22
2023-01-12T01:35:29.392Z,99034.13
2023-01-12T01:36:31.297Z,99022.34
2023-01-12T01:37:33.075Z,99037.38
2023-01-12T01:38:35.195Z,99023.25
2023-01-12T01:39:36.998Z,99034.13
2023-01-12T01:40:43.519Z,99015.56
2023-01-12T01:41:45.301Z,99028.69
2023-01-12T01:42:47.025Z,99013.84
2023-01-12T01:43:58.225Z,99032.66
2023-01-12T01:45:02.681Z,99023.97
2023-01-12T01:46:09.555Z,99030.84
2023-01-12T01:47:25.620Z,99018.28
2023-01-12T01:48:29.710Z,98985.50
2023-01-12T01:49:37.462Z,99029.50
2023-01-12T01:50:43.204Z,99023.31
2023-01-12T01:51:46.074Z,99030.78
2023-01-12T01:52:56.204Z,99034.47
2023-01-12T01:53:57.923Z,99023.31
2023-01-12T01:55:18.265Z,99028.06
2023-01-12T01:56:28.389Z,99020.63
2023-01-12T01:57:37.228Z,99019.88
2023-01-12T01:58:43.341Z,99022.72
2023-01-12T01:59:51.292Z,99026.88
2023-01-12T02:00:53.431Z,99026.78
2023-01-12T02:01:55.514Z,99016.91
2023-01-12T02:02:59.720Z,99028.88
2023-01-12T02:04:02.467Z,99020.69
2023-01-12T02:05:04.638Z,99019.09
2023-01-12T02:06:07.800Z,99022.97
2023-01-12T02:07:10.453Z,99022.91
2023-01-12T02:08:24.910Z,99024.72
2023-01-12T02:09:28.267Z,99023.91
2023-01-12T02:10:30.126Z,99022.69
2023-01-12T02:11:50.763Z,99017.84
2023-01-12T02:13:11.348Z,99022.34
2023-01-12T02:14:31.826Z,99031.03
2023-01-12T02:16:35.647Z,99018.84
2023-01-12T02:18:13.250Z,99024.25
2023-01-12T02:19:23.949Z,99027.69
2023-01-12T02:20:40.915Z,99025.25
2023-01-12T02:21:48.408Z,99030.50
2023-01-12T02:23:17.546Z,99026.88
2023-01-12T02:24:51.511Z,99033.22
2023-01-12T02:26:22.601Z,99024.59
2023-01-12T02:27:42.883Z,99030.50
2023-01-12T02:28:50.674Z,99025.72
2023-01-12T02:29:55.401Z,99023.25
2023-01-12T02:31:27.614Z,99026.25
2023-01-12T02:33:00.933Z,99022.81
2023-01-12T02:34:40.062Z,99022.63
2023-01-12T02:35:58.518Z,99028.88
2023-01-12T02:37:04.326Z,99024.25
2023-01-12T02:38:24.839Z,99020.00
2023-01-12T02:39:26.535Z,99017.72
2023-01-12T02:40:35.664Z,99024.78
2023-01-12T02:42:20.091Z,99020.00
2023-01-12T02:43:28.033Z,99014.28
2023-01-12T02:44:44.074Z,99007.59
2023-01-12T02:45:51.385Z,99015.75
2023-01-12T02:46:54.821Z,99013.38
2023-01-12T02:47:59.408Z,99019.53
2023-01-12T02:49:08.185Z,99014.63
2023-01-12T02:50:18.126Z,99013.84
2023-01-12T02:51:33.527Z,99013.22
2023-01-12T02:52:35.646Z,99015.66
2023-01-12T02:53:43.535Z,99012.22
2023-01-12T02:54:48.489Z,99015.91
2023-01-12T02:55:52.564Z,99014.28
2023-01-12T02:57:00.247Z,99023.13
2023-01-12T02:58:05.168Z,99010.41
2023-01-12T02:59:22.946Z,99005.84
2023-01-12T03:00:26.479Z,99016.00
2023-01-12T03:01:29.433Z,99014.06
2023-01-12T03:02:31.534Z,98984.91
2023-01-12T03:03:35.360Z,99017.34
2023-01-12T03:04:37.178Z,99004.94
2023-01-12T03:05:42.898Z,99011.91
2023-01-12T03:07:07.132Z,99017.44
2023-01-12T03:08:13.991Z,99011.38
2023-01-12T03:09:17.269Z,99016.16
2023-01-12T03:10:44.977Z,99015.69
2023-01-12T03:11:49.723Z,99014.34
2023-01-12T03:12:55.193Z,99016.63
2023-01-12T03:14:00.887Z,99024.50
2023-01-12T03:15:07.851Z,99025.19
2023-01-12T03:16:12.834Z,99016.06
2023-01-12T03:17:28.372Z,99022.31
2023-01-12T03:18:42.010Z,99024.84
2023-01-12T03:19:46.587Z,99027.81
2023-01-12T03:20:53.736Z,99028.00
2023-01-12T03:22:00.735Z,99026.47
2023-01-12T03:23:10.854Z,99014.34
2023-01-12T03:24:15.693Z,99029.75
2023-01-12T03:25:18.526Z,99022.88
2023-01-12T03:26:25.546Z,99021.59
2023-01-12T03:27:46.291Z,99023.69
2023-01-12T03:28:53.250Z,99022.88
2023-01-12T03:30:01.032Z,99021.88
2023-01-12T03:31:09.245Z,99029.19
2023-01-12T03:32:11.226Z,99022.06
2023-01-12T03:33:13.732Z,99026.78
2023-01-12T03:34:15.750Z,99024.59
2023-01-12T03:35:22.060Z,99039.00
2023-01-12T03:36:35.672Z,99037.53
2023-01-12T03:37:49.197Z,99029.84
2023-01-12T03:39:02.630Z,99033.00
2023-01-12T03:40:13.161Z,99040.16
2023-01-12T03:41:26.937Z,99034.66
2023-01-12T03:42:57.445Z,99039.59
2023-01-12T03:44:04.994Z,99035.00
2023-01-12T03:45:44.008Z,99036.50
2023-01-12T03:46:55.160Z,99030.19
2023-01-12T03:48:10.132Z,99038.50
2023-01-12T03:49:19.777Z,99030.84
2023-01-12T03:50:27.472Z,99047.47
2023-01-12T03:51:57.110Z,99043.03
2023-01-12T03:53:02.219Z,99038.78
2023-01-12T03:54:06.452Z,99035.16
2023-01-12T03:55:12.726Z,99033.38
2023-01-12T03:56:15.595Z,99028.13
2023-01-12T03:57:17.807Z,99043.78
2023-01-12T03:58:20.072Z,99042.59
2023-01-12T03:59:22.631Z,99033.00
2023-01-12T04:00:27.352Z,99046.06
2023-01-12T04:01:29.273Z,99037.88
2023-01-12T04:02:31.234Z,99028.59
2023-01-12T04:03:33.294Z,99041.63
2023-01-12T04:04:35.083Z,99039.97
2023-01-12T04:05:37.587Z,99041.50
2023-01-12T04:06:39.287Z,99037.88
2023-01-12T04:07:41.148Z,99046.06
2023-01-12T04:08:42.842Z,99038.00
2023-01-12T04:09:44.575Z,99041.78
2023-01-12T04:10:46.283Z,99047.69
2023-01-12T04:12:06.529Z,99032.47
2023-01-12T04:13:08.291Z,99049.97
2023-01-12T04:14:09.993Z,99043.06
2023-01-12T04:15:11.762Z,99038.34
2023-01-12T04:16:13.526Z,99048.97
2023-01-12T04:17:16.024Z,99053.47
2023-01-12T04:18:18.032Z,99046.88
2023-01-12T04:19:19.794Z,99040.50
2023-01-12T04:20:21.617Z,99053.22
2023-01-12T04:21:42.211Z,99054.22
2023-01-12T04:22:45.740Z,99053.84
2023-01-12T04:23:47.445Z,99046.06
2023-01-12T04:24:49.290Z,99053.84
2023-01-12T04:25:50.966Z,99060.88
2023-01-12T04:26:52.674Z,99053.41
2023-01-12T04:27:59.151Z,99046.13
2023-01-12T04:29:00.879Z,99050.13
2023-01-12T04:30:02.946Z,99056.19
2023-01-12T04:31:04.703Z,99047.50
2023-01-12T04:32:06.838Z,99050.22
2023-01-12T04:33:09.542Z,99051.38
2023-01-12T04:34:11.268Z,99048.50
2023-01-12T04:35:13.599Z,99042.44
2023-01-12T04:36:15.663Z,99058.47
2023-01-12T04:37:17.393Z,99053.47
2023-01-12T04:38:19.696Z,99040.06
2023-01-12T04:39:21.457Z,99055.09
2023-01-12T04:40:23.278Z,99050.41
2023-01-12T04:41:25.022Z,99062.16
2023-01-12T04:42:45.304Z,99055.56
2023-01-12T04:43:47.261Z,99057.53
2023-01-12T04:44:48.957Z,99064.72
2023-01-12T04:45:50.724Z,99063.72
2023-01-12T04:46:52.507Z,99067.34
2023-01-12T04:47:54.255Z,99034.44
2023-01-12T04:48:56.066Z,99068.69
2023-01-12T04:49:57.751Z,99051.66
2023-01-12T04:51:00.926Z,99063.44
2023-01-12T04:52:02.630Z,99054.75
2023-01-12T04:53:06.417Z,99058.66
2023-01-12T04:54:10.053Z,99060.06
2023-01-12T04:55:11.767Z,99061.09
2023-01-12T04:56:13.521Z,99065.31
2023-01-12T04:57:15.307Z,99058.25
2023-01-12T04:58:17.057Z,99069.53
2023-01-12T04:59:18.804Z,99070.50
2023-01-12T05:00:20.915Z,99072.16
2023-01-12T05:01:22.877Z,99068.88
2023-01-12T05:02:24.645Z,99078.22
2023-01-12T05:03:26.373Z,99070.50
2023-01-12T05:04:28.213Z,99068.59
2023-01-12T05:05:32.514Z,99079.38
2023-01-12T05:06:34.247Z,99072.50
2023-01-12T05:07:36.135Z,99066.59
2023-01-12T05:08:57.100Z,99072.84
2023-01-12T05:10:17.726Z,99077.47
2023-01-12T05:11:21.278Z,99050.66
2023-01-12T05:12:23.278Z,99071.59
2023-01-12T05:13:28.838Z,99073.56
2023-01-12T05:14:30.600Z,99079.72
2023-01-12T05:15:32.312Z,99077.28
2023-01-12T05:16:34.187Z,99068.31
2023-01-12T05:17:35.877Z,99079.09
2023-01-12T05:18:37.772Z,99079.72
2023-01-12T05:19:39.484Z,99072.50
2023-01-12T05:20:41.328Z,99069.22
2023-01-12T05:21:43.779Z,99080.47
2023-01-12T05:22:45.540Z,99071.22
2023-01-12T05:23:47.254Z,99077.75
2023-01-12T05:24:49.024Z,99079.72
2023-01-12T05:25:50.718Z,99079.91
2023-01-12T05:26:52.490Z,99087.34
2023-01-12T05:28:00.151Z,99080.00
2023-01-12T05:29:01.866Z,99096.81
2023-01-12T05:30:03.888Z,99084.34
2023-01-12T05:31:11.768Z,99090.22
2023-01-12T05:32:13.534Z,99094.59
2023-01-12T05:33:19.493Z,99090.97
2023-01-12T05:34:21.389Z,99087.50
2023-01-12T05:35:23.136Z,99079.84
2023-01-12T05:36:26.514Z,99084.88
2023-01-12T05:37:29.020Z,99091.16
2023-01-12T05:38:30.756Z,99095.22
2023-01-12T05:39:32.713Z,99091.44
2023-01-12T05:40:34.412Z,99093.34
2023-01-12T05:41:36.088Z,99092.97
2023-01-12T05:42:56.828Z,99096.63
2023-01-12T05:43:58.546Z,99101.88
2023-01-12T05:45:00.304Z,99090.09
2023-01-12T05:46:04.297Z,99094.78
2023-01-12T05:47:06.092Z,99090.09
2023-01-12T05:48:09.627Z,99094.97
2023-01-12T05:49:11.351Z,99086.47
2023-01-12T05:50:13.312Z,99084.19
2023-01-12T05:51:15.868Z,99090.53
2023-01-12T05:52:17.632Z,99094.97
2023-01-12T05:53:19.368Z,99094.34
2023-01-12T05:54:21.077Z,99086.81
2023-01-12T05:55:22.793Z,99085.19
2023-01-12T05:56:26.426Z,99092.34
2023-01-12T05:57:30.504Z,99085.81
2023-01-12T05:58:32.193Z,99091.97
2023-01-12T05:59:33.948Z,99090.16
2023-01-12T06:00:35.748Z,99088.44
2023-01-12T06:01:38.592Z,99097.97
2023-01-12T06:02:40.313Z,99096.31
2023-01-12T06:03:41.997Z,99102.56
2023-01-12T06:04:44.578Z,99095.38
2023-01-12T06:05:53.058Z,99098.13
2023-01-12T06:06:54.832Z,99091.72
2023-01-12T06:07:56.560Z,99094.00
2023-01-12T06:08:59.562Z,99087.72
2023-01-12T06:10:01.357Z,99087.72
2023-01-12T06:11:04.009Z,99094.25
2023-01-12T06:12:25.031Z,99083.66
2023-01-12T06:13:45.651Z,99083.38
2023-01-12T06:14:47.476Z,99081.56
2023-01-12T06:15:49.278Z,99091.53
2023-01-12T06:16:50.992Z,99089.44
2023-01-12T06:17:52.714Z,99088.44
2023-01-12T06:18:54.859Z,99091.88
2023-01-12T06:19:56.625Z,99088.97
2023-01-12T06:20:59.880Z,99092.72
2023-01-12T06:22:01.687Z,99082.56
2023-01-12T06:23:07.817Z,99094.88
2023-01-12T06:24:09.665Z,99093.69
2023-01-12T06:25:11.742Z,99092.72
2023-01-12T06:26:13.566Z,99085.19
2023-01-12T06:27:16.685Z,99083.53
2023-01-12T06:28:18.442Z,99089.25
2023-01-12T06:29:20.238Z,99092.06
2023-01-12T06:30:23.922Z,99096.63
2023-01-12T06:31:25.784Z,99085.19
2023-01-12T06:32:28.806Z,99100.84
2023-01-12T06:33:31.421Z,99102.22
2023-01-12T06:34:35.498Z,99097.41
2023-01-12T06:35:37.202Z,99103.84
2023-01-12T06:36:39.846Z,99109.38
2023-01-12T06:37:41.563Z,99103.94
2023-01-12T06:38:43.476Z,99113.28
2023-01-12T06:39:45.189Z,99106.31
2023-01-12T06:40:47.109Z,99108.38
2023-01-12T06:42:07.541Z,99113.78
2023-01-12T06:43:09.245Z,99112.53
2023-01-12T06:44:10.943Z,99114.78
2023-01-12T06:45:12.666Z,99119.34
2023-01-12T06:46:14.378Z,99119.34
2023-01-12T06:47:16.171Z,99127.03
2023-01-12T06:48:21.228Z,99109.19
2023-01-12T06:49:22.926Z,99113.91
2023-01-12T06:50:25.351Z,99118.16
2023-01-12T06:51:27.327Z,99119.16
2023-01-12T06:52:30.373Z,99106.75
2023-01-12T06:53:32.083Z,99121.44
2023-01-12T06:54:33.804Z,99112.91
2023-01-12T06:55:35.519Z,99114.81
2023-01-12T06:56:37.267Z,99120.25
2023-01-12T06:57:39.016Z,99117.44
2023-01-12T06:58:43.497Z,99120.53
2023-01-12T06:59:45.870Z,99120.69
2023-01-12T07:00:47.638Z,99115.91
2023-01-12T07:01:49.535Z,99115.91
2023-01-12T07:02:51.966Z,99130.38
2023-01-12T07:03:54.103Z,99123.16
2023-01-12T07:04:55.833Z,99130.84
2023-01-12T07:06:01.221Z,99125.41
2023-01-12T07:07:02.912Z,99125.06
2023-01-12T07:08:05.239Z,99117.34
2023-01-12T07:09:06.986Z,99098.94
2023-01-12T07:10:10.718Z,99139.19
2023-01-12T07:11:12.926Z,99125.22
2023-01-12T07:12:14.626Z,99131.22
2023-01-12T07:13:16.503Z,99133.66
2023-01-12T07:14:18.265Z,99138.72
2023-01-12T07:15:20.015Z,99137.75
2023-01-12T07:16:21.784Z,99141.44
2023-01-12T07:17:23.539Z,99130.41
2023-01-12T07:18:25.291Z,99131.03
2023-01-12T07:19:27.029Z,99138.00
2023-01-12T07:20:28.899Z,99133.56
2023-01-12T07:21:30.602Z,99132.94
2023-01-12T07:22:32.741Z,99144.09
2023-01-12T07:23:35.162Z,99132.28
2023-01-12T07:24:36.887Z,99141.09
2023-01-12T07:25:38.560Z,99142.72
2023-01-12T07:26:40.296Z,99136.84
2023-01-12T07:27:55.662Z,99128.31
2023-01-12T07:28:57.481Z,99132.03
2023-01-12T07:29:59.167Z,99139.75
2023-01-12T07:31:02.432Z,99137.72
2023-01-12T07:32:04.598Z,99140.09
2023-01-12T07:33:15.772Z,99138.94
2023-01-12T07:34:18.846Z,99136.84
2023-01-12T07:35:20.686Z,99144.72
2023-01-12T07:36:22.652Z,99149.63
2023-01-12T07:37:24.463Z,99146.34
2023-01-12T07:38:27.496Z,99148.63
2023-01-12T07:39:29.519Z,99145.53
2023-01-12T07:40:31.245Z,99146.00
2023-01-12T07:41:51.825Z,99122.06
2023-01-12T07:43:03.899Z,99157.94
2023-01-12T07:44:05.807Z,99151.63
2023-01-12T07:45:07.988Z,99152.97
2023-01-12T07:46:09.736Z,99146.25
2023-01-12T07:47:11.466Z,99159.13
2023-01-12T07:48:13.272Z,99159.84
2023-01-12T07:49:15.034Z,99155.75
2023-01-12T07:50:17.044Z,99161.03
2023-01-12T07:51:20.071Z,99154.94
2023-01-12T07:52:21.781Z,99156.16
2023-01-12T07:53:24.019Z,99155.31
2023-01-12T07:54:26.736Z,99151.78
2023-01-12T07:55:29.573Z,99156.22
2023-01-12T07:56:31.253Z,99163.47
2023-01-12T07:57:33.043Z,99161.66
2023-01-12T07:58:34.779Z,99159.03
2023-01-12T07:59:36.835Z,99162.28
2023-01-12T08:00:38.657Z,99168.19
2023-01-12T08:01:41.330Z,99165.75
2023-01-12T08:02:43.238Z,99167.66
2023-01-12T08:03:45.097Z,99130.59
2023-01-12T08:04:47.299Z,99165.38
2023-01-12T08:05:49.052Z,99171.19
2023-01-12T08:06:50.839Z,99165.47
2023-01-12T08:07:52.572Z,99166.47
2023-01-12T08:08:54.776Z,99171.53
2023-01-12T08:09:56.516Z,99164.47
2023-01-12T08:11:06.120Z,99172.53
2023-01-12T08:12:07.848Z,99177.09
2023-01-12T08:13:09.966Z,99167.09
2023-01-12T08:14:23.530Z,99177.53
2023-01-12T08:15:27.037Z,99180.25
2023-01-12T08:16:46.126Z,99167.81
2023-01-12T08:18:06.043Z,99176.09
2023-01-12T08:19:16.604Z,99176.09
2023-01-12T08:20:38.781Z,99174.97
2023-01-12T08:21:58.927Z,99170.09
2023-01-12T08:23:30.056Z,99176.25
2023-01-12T08:24:41.528Z,99164.91
2023-01-12T08:25:49.295Z,99175.16
2023-01-12T08:26:53.132Z,99179.84
2023-01-12T08:27:57.952Z,99177.22
2023-01-12T08:29:17.879Z,99170.22
2023-01-12T08:30:22.935Z,99167.59
2023-01-12T08:31:26.439Z,99176.75
2023-01-12T08:32:29.700Z,99177.19
2023-01-12T08:33:31.435Z,99180.63
2023-01-12T08:34:35.169Z,99180.75
2023-01-12T08:35:38.025Z,99171.56
2023-01-12T08:36:44.070Z,99178.94
2023-01-12T08:37:46.359Z,99179.81
2023-01-12T08:38:48.409Z,99177.28
2023-01-12T08:39:51.838Z,99182.94
2023-01-12T08:41:12.067Z,99174.81
2023-01-12T08:42:14.004Z,99175.88
2023-01-12T08:43:35.868Z,99177.69
2023-01-12T08:44:38.747Z,99170.44
2023-01-12T08:45:41.157Z,99179.22
2023-01-12T08:46:50.205Z,99178.22
2023-01-12T08:47:51.997Z,99164.97
2023-01-12T08:48:54.083Z,99172.31
2023-01-12T08:49:59.403Z,99162.84
2023-01-12T08:51:01.140Z,99149.13
2023-01-12T08:52:02.935Z,99156.72
2023-01-12T08:53:04.791Z,99166.69
2023-01-12T08:54:08.633Z,99170.81
2023-01-12T08:55:11.429Z,99164.34
2023-01-12T08:56:13.239Z,99168.66
2023-01-12T08:57:16.393Z,99162.97
2023-01-12T08:58:18.128Z,99135.72
2023-01-12T08:59:19.826Z,99164.41
2023-01-12T09:00:21.792Z,99163.28
2023-01-12T09:01:23.598Z,99155.78
2023-01-12T09:02:27.184Z,99167.00
2023-01-12T09:03:29.142Z,99151.41
2023-01-12T09:04:30.869Z,99162.56
2023-01-12T09:05:32.638Z,99154.41
2023-01-12T09:06:42.711Z,99156.41
2023-01-12T09:07:44.444Z,99156.84
2023-01-12T09:08:46.873Z,99158.94
2023-01-12T09:09:48.580Z,99156.28
2023-01-12T09:10:50.347Z,99158.53
2023-01-12T09:11:52.290Z,99151.59
2023-01-12T09:12:53.990Z,99162.22
2023-01-12T09:13:59.106Z,99148.44
2023-01-12T09:15:00.841Z,99142.97
2023-01-12T09:16:14.030Z,99153.63
2023-01-12T09:17:15.785Z,99139.22
2023-01-12T09:18:19.599Z,99150.78
2023-01-12T09:19:21.499Z,99146.13
2023-01-12T09:20:23.234Z,99156.88
2023-01-12T09:21:27.394Z,99148.94
2023-01-12T09:22:29.830Z,99148.53
2023-01-12T09:23:31.661Z,99157.03
2023-01-12T09:24:33.350Z,99161.69
2023-01-12T09:25:35.519Z,99152.13
2023-01-12T09:26:40.031Z,99158.19
2023-01-12T09:27:41.745Z,99147.59
2023-01-12T09:28:46.914Z,99160.69
2023-01-12T09:29:48.645Z,99157.84
2023-01-12T09:30:50.350Z,99144.41
2023-01-12T09:31:52.451Z,99149.25
2023-01-12T09:32:55.426Z,99148.94
2023-01-12T09:33:57.895Z,99153.41
2023-01-12T09:34:59.917Z,99154.16
2023-01-12T09:36:06.838Z,99134.06
2023-01-12T09:37:08.553Z,99151.03
2023-01-12T09:38:11.314Z,99139.63
2023-01-12T09:39:26.888Z,99148.84
2023-01-12T09:40:29.671Z,99145.78
2023-01-12T09:41:58.035Z,99154.56
2023-01-12T09:43:18.362Z,99151.69
2023-01-12T09:44:43.393Z,99147.84
2023-01-12T09:46:04.002Z,99140.56
2023-01-12T09:47:14.921Z,99148.03
2023-01-12T09:48:19.483Z,99148.47
2023-01-12T09:49:26.882Z,99150.66
2023-01-12T09:50:35.701Z,99145.44
2023-01-12T09:51:48.498Z,99144.22
2023-01-12T09:53:14.073Z,99137.75
2023-01-12T09:54:16.166Z,99127.84
2023-01-12T09:55:21.768Z,99137.44
2023-01-12T09:56:31.942Z,99135.84
2023-01-12T09:57:55.617Z,99126.59
2023-01-12T09:59:25.299Z,99123.34
2023-01-12T10:00:28.355Z,99123.97
2023-01-12T10:01:30.441Z,99119.28
2023-01-12T10:02:39.489Z,99125.41
2023-01-12T10:03:43.378Z,99128.47
2023-01-12T10:04:48.361Z,99119.72
2023-01-12T10:05:58.113Z,99110.41
2023-01-12T10:06:59.909Z,99124.63
2023-01-12T10:08:02.073Z,99129.69
2023-01-12T10:09:07.278Z,99124.22
2023-01-12T10:10:14.454Z,99125.81
2023-01-12T10:11:34.728Z,99125.00
2023-01-12T10:12:44.403Z,99113.41
2023-01-12T10:14:07.766Z,99121.75
2023-01-12T10:15:37.160Z,99118.47
2023-01-12T10:17:17.651Z,99125.59
2023-01-12T10:18:39.310Z,99121.34
2023-01-12T10:19:50.966Z,99117.31
2023-01-12T10:20:53.317Z,99111.41
2023-01-12T10:21:55.609Z,99116.06
2023-01-12T10:23:24.550Z,99113.66
2023-01-12T10:24:26.471Z,99122.59
2023-01-12T10:26:10.567Z,99117.50
2023-01-12T10:27:22.357Z,99102.66
2023-01-12T10:28:33.573Z,99109.16
2023-01-12T10:29:35.349Z,99102.25
2023-01-12T10:30:40.495Z,99111.00
2023-01-12T10:31:42.289Z,99099.00
2023-01-12T10:32:44.087Z,99101.66
2023-01-12T10:34:21.444Z,99107.94
2023-01-12T10:35:25.247Z,99108.19
2023-01-12T10:36:27.346Z,99108.38
2023-01-12T10:37:29.057Z,99105.09
2023-01-12T10:38:38.468Z,99104.13
2023-01-12T10:39:40.282Z,99103.50
2023-01-12T10:40:42.035Z,99106.13
2023-01-12T10:41:44.435Z,99106.72
2023-01-12T10:43:19.689Z,99105.09
2023-01-12T10:44:21.981Z,99105.50
2023-01-12T10:45:24.487Z,99095.13
2023-01-12T10:46:33.840Z,99090.06
2023-01-12T10:47:35.526Z,99103.44
2023-01-12T10:48:39.516Z,99092.69
2023-01-12T10:49:41.239Z,99096.16
2023-01-12T10:50:43.030Z,99093.72
2023-01-12T10:52:30.811Z,99094.16
2023-01-12T10:53:45.664Z,99080.34
2023-01-12T10:54:49.606Z,99091.72
2023-01-12T10:55:51.751Z,99091.72
2023-01-12T10:57:01.731Z,99097.81
2023-01-12T10:58:03.963Z,99088.28
2023-01-12T10:59:29.381Z,99098.63
2023-01-12T11:00:31.854Z,99089.28
2023-01-12T11:01:44.670Z,99090.09
2023-01-12T11:02:46.636Z,99100.66
2023-01-12T11:03:48.711Z,99091.72
2023-01-12T11:04:55.785Z,99092.16
2023-01-12T11:06:34.214Z,99088.88
2023-01-12T11:07:49.358Z,99099.44
2023-01-12T11:08:51.758Z,99088.88
2023-01-12T11:09:54.836Z,99094.78
2023-01-12T11:10:56.576Z,99086.06
2023-01-12T11:12:01.089Z,99096.00
2023-01-12T11:13:05.906Z,99100.25
2023-01-12T11:14:24.365Z,99096.41
2023-01-12T11:15:28.037Z,99087.69
2023-01-12T11:16:35.253Z,99082.41
2023-01-12T11:17:52.677Z,99096.19
2023-01-12T11:19:09.627Z,99094.59
2023-01-12T11:20:21.404Z,99096.81
2023-01-12T11:21:29.159Z,99090.69
2023-01-12T11:22:36.252Z,99096.19
2023-01-12T11:23:42.290Z,99089.06
2023-01-12T11:24:55.535Z,99093.97
2023-01-12T11:26:02.207Z,99094.97
2023-01-12T11:27:16.556Z,99088.06
2023-01-12T11:28:29.453Z,99081.56
2023-01-12T11:29:54.356Z,99087.03
2023-01-12T11:31:06.254Z,99089.06
2023-01-12T11:32:17.183Z,99089.25
2023-01-12T11:33:30.049Z,99083.97
2023-01-12T11:34:39.465Z,99087.22
2023-01-12T11:35:50.127Z,99075.47
2023-01-12T11:37:05.963Z,99070.59
2023-01-12T11:38:21.141Z,99079.50
2023-01-12T11:39:24.508Z,99073.00
2023-01-12T11:40:31.825Z,99080.56
2023-01-12T11:42:16.712Z,99070.97
2023-01-12T11:44:02.475Z,99072.84
2023-01-12T11:45:07.318Z,99079.75
2023-01-12T11:46:25.122Z,99069.38
2023-01-12T11:47:42.034Z,99077.09
2023-01-12T11:49:12.053Z,99072.41
2023-01-12T11:50:18.449Z,99063.47
2023-01-12T11:51:20.277Z,99070.19
2023-01-12T11:52:23.945Z,99073.47
2023-01-12T11:53:26.018Z,99072.84
2023-01-12T11:54:30.286Z,99068.97
2023-01-12T11:56:06.917Z,99063.91
2023-01-12T11:57:51.959Z,99063.69
2023-01-12T11:59:24.690Z,99056.78
2023-01-12T12:00:54.795Z,99052.31
2023-01-12T12:02:16.522Z,99059.00
2023-01-12T12:03:45.768Z,99054.34
2023-01-12T12:04:53.185Z,99053.91
2023-01-12T12:06:22.791Z,99051.47
2023-01-12T12:07:48.297Z,99045.41
2023-01-12T12:09:11.521Z,99045.16
2023-01-12T12:10:25.576Z,99052.31
2023-01-12T12:11:42.061Z,99054.72
2023-01-12T12:13:02.171Z,99051.69
2023-01-12T12:14:29.221Z,99052.50
2023-01-12T12:15:33.657Z,99044.56
2023-01-12T12:16:57.463Z,99047.44
2023-01-12T12:18:16.444Z,99042.97
2023-01-12T12:19:24.312Z,99044.59
2023-01-12T12:20:56.519Z,99050.47
2023-01-12T12:22:18.406Z,99049.44
2023-01-12T12:23:23.125Z,99051.06
2023-01-12T12:24:51.933Z,99049.47
2023-01-12T12:26:31.911Z,99051.88
2023-01-12T12:28:18.672Z,99057.78
2023-01-12T12:29:32.291Z,99051.06
2023-01-12T12:30:42.788Z,99047.81
2023-01-12T12:32:22.024Z,99043.75
2023-01-12T12:33:50.379Z,99048.22
2023-01-12T12:35:23.416Z,99041.31
2023-01-12T12:36:25.055Z,99044.97
2023-01-12T12:37:53.591Z,99047.03
2023-01-12T12:39:01.141Z,99048.25
2023-01-12T12:41:06.056Z,99050.69
2023-01-12T12:43:04.220Z,99042.94
2023-01-12T12:45:04.685Z,99050.88
2023-01-12T12:46:18.571Z,99047.00
2023-01-12T12:47:42.255Z,99046.00
2023-01-12T12:48:52.605Z,99039.13
2023-01-12T12:49:58.538Z,99047.63
2023-01-12T12:51:10.501Z,99044.16
2023-01-12T12:52:13.687Z,99049.25
2023-01-12T12:53:18.725Z,99050.09
2023-01-12T12:54:22.934Z,99048.44
2023-01-12T12:55:25.592Z,99048.63
2023-01-12T12:56:29.820Z,99050.25
2023-01-12T12:57:31.570Z,99052.09
2023-01-12T12:58:45.348Z,99047.19
2023-01-12T13:00:25.456Z,99044.97
2023-01-12T13:01:29.876Z,99051.25
2023-01-12T13:02:55.224Z,99042.94
2023-01-12T13:04:01.350Z,99054.91
2023-01-12T13:05:06.121Z,99049.84
2023-01-12T13:06:24.129Z,99042.53
2023-01-12T13:07:26.492Z,99052.88
2023-01-12T13:08:35.026Z,99048.00
2023-01-12T13:09:38.994Z,99050.44
2023-01-12T13:10:49.608Z,99051.09
2023-01-12T13:11:54.283Z,99054.13
2023-01-12T13:13:03.070Z,99052.28
2023-01-12T13:14:16.785Z,99056.78